Time;durP1;ratioP1;P1;durP2;ratioP2;P2;SDS_P1;SDS_P2;PMS_P1;PMS_P2;Temp;Humidity;BMP_temperature;BMP_pressure;BME280_temperature;BME280_humidity;BME280_pressure;Samples;Min_cycle;Max_cycle;Signal;HPM_P1;HPM_P2
2022/09/13 00:01:12;;;;;;;;;8.75;6.50;;;;;22.44;61.29;100675.91;5021663;28;45364;-93
2022/09/13 00:03:38;;;;;;;;;6.50;6.50;;;;;22.42;61.29;100673.38;5021865;28;62360;-94
2022/09/13 00:06:15;;;;;;;;;8.00;6.00;;;;;22.41;61.59;100670.84;5021848;28;48156;-94
2022/09/13 00:08:41;;;;;;;;;8.75;7.00;;;;;22.38;62.02;100665.78;5038685;28;45429;-92
2022/09/13 00:11:17;;;;;;;;;7.00;7.00;;;;;22.35;62.50;100674.84;5022031;28;45460;-92
2022/09/13 00:13:43;;;;;;;;;5.50;4.75;;;;;22.32;61.60;100676.88;5021712;28;48711;-93
2022/09/13 00:16:13;;;;;;;;;5.25;5.25;;;;;22.27;61.14;100679.91;5021405;28;46283;-93
2022/09/13 00:18:40;;;;;;;;;9.25;6.75;;;;;22.24;61.38;100683.59;5022167;28;45449;-93
2022/09/13 00:21:07;;;;;;;;;7.75;5.00;;;;;22.22;61.93;100684.69;5005295;28;45322;-93
2022/09/13 00:23:33;;;;;;;;;6.00;5.00;;;;;22.18;62.36;100677.97;5021666;28;46389;-93
2022/09/13 00:26:11;;;;;;;;;6.00;4.75;;;;;22.16;61.74;100670.13;5055126;28;45351;-92
2022/09/13 00:28:37;;;;;;;;;6.50;6.50;;;;;22.16;61.99;100672.78;5013990;28;45426;-93
2022/09/13 00:31:04;;;;;;;;;8.50;7.25;;;;;22.17;62.14;100663.00;4966046;28;45565;-95
2022/09/13 00:33:29;;;;;;;;;6.75;6.75;;;;;22.17;62.16;100661.19;5011001;28;48092;-93
2022/09/13 00:35:55;;;;;;;;;7.50;7.00;;;;;22.16;62.00;100658.69;5000369;28;45977;-92
2022/09/13 00:38:21;;;;;;;;;5.75;5.25;;;;;22.15;61.67;100651.69;5019425;28;45338;-93
2022/09/13 00:40:46;;;;;;;;;6.00;6.00;;;;;22.14;61.63;100637.59;5019059;28;45489;-93
2022/09/13 00:43:20;;;;;;;;;9.75;6.75;;;;;22.12;61.33;100636.88;4984749;28;52229;-94
2022/09/13 00:45:46;;;;;;;;;8.50;6.75;;;;;22.10;60.74;100638.81;5001834;28;45344;-94
2022/09/13 00:48:21;;;;;;;;;5.00;3.00;;;;;22.06;60.78;100637.34;4985852;28;45319;-94
2022/09/13 00:50:51;;;;;;;;;7.25;6.25;;;;;22.04;61.18;100639.28;5001841;28;45441;-93
2022/09/13 00:53:25;;;;;;;;;6.00;6.00;;;;;22.02;61.42;100639.38;5001596;28;46372;-93
2022/09/13 00:55:56;;;;;;;;;5.25;5.25;;;;;21.99;61.84;100646.72;5002502;28;45283;-93
2022/09/13 00:58:26;;;;;;;;;5.00;5.00;;;;;21.97;61.83;100649.53;5021797;28;45359;-93
2022/09/13 01:00:52;;;;;;;;;6.75;5.00;;;;;21.95;62.22;100655.91;5021233;28;45530;-93
2022/09/13 01:03:20;;;;;;;;;5.00;5.00;;;;;21.95;62.40;100640.88;5004714;28;47227;-93
2022/09/13 01:05:52;;;;;;;;;4.25;4.25;;;;;21.97;62.46;100638.94;5004594;28;46062;-93
2022/09/13 01:08:24;;;;;;;;;6.50;4.00;;;;;21.96;62.61;100642.53;5004943;28;45337;-95
2022/09/13 01:10:50;;;;;;;;;7.50;4.50;;;;;21.95;62.54;100638.22;5005433;28;45333;-93
2022/09/13 01:13:24;;;;;;;;;7.00;4.75;;;;;21.96;62.38;100631.94;5020840;28;47408;-93
2022/09/13 01:15:50;;;;;;;;;4.75;4.50;;;;;21.97;62.35;100624.81;5004359;28;45332;-94
2022/09/13 01:18:16;;;;;;;;;6.00;5.00;;;;;21.98;62.35;100615.91;5021030;28;45273;-94
2022/09/13 01:20:47;;;;;;;;;5.75;5.00;;;;;21.97;61.43;100614.22;5004373;28;45507;-94
2022/09/13 01:23:18;;;;;;;;;4.25;4.25;;;;;21.96;61.58;100617.84;5038402;28;45466;-94
2022/09/13 01:26:02;;;;;;;;;5.00;4.00;;;;;21.95;60.53;100622.31;5038485;28;45424;-94
2022/09/13 01:28:55;;;;;;;;;2.50;2.50;;;;;21.93;60.57;100610.97;5020534;28;45337;-93
2022/09/13 01:31:32;;;;;;;;;8.25;5.00;;;;;21.92;60.69;100609.28;5020818;28;45629;-93
2022/09/13 01:34:01;;;;;;;;;6.00;4.75;;;;;21.90;60.35;100613.88;5020461;28;46249;-93
2022/09/13 01:36:37;;;;;;;;;3.00;3.00;;;;;21.87;60.25;100608.81;5038360;28;45799;-94
2022/09/13 01:39:11;;;;;;;;;3.75;3.75;;;;;21.87;60.90;100610.63;5038600;28;45366;-93
2022/09/13 01:41:41;;;;;;;;;3.75;3.75;;;;;21.89;61.11;100603.38;5003783;28;46001;-94
2022/09/13 01:44:20;;;;;;;;;4.75;3.50;;;;;21.88;60.57;100612.28;5038267;28;45486;-93
2022/09/13 01:46:51;;;;;;;;;4.25;4.25;;;;;21.88;60.11;100610.50;5020379;28;45825;-93
2022/09/13 01:49:41;;;;;;;;;6.00;4.00;;;;;21.93;61.29;100604.81;5004188;28;45206;-93
2022/09/13 01:52:24;;;;;;;;;3.25;3.25;;;;;21.93;60.79;100600.34;5020454;28;45326;-93
2022/09/13 01:55:02;;;;;;;;;4.00;4.00;;;;;21.93;61.11;100603.00;5038106;28;45873;-93
2022/09/13 01:57:32;;;;;;;;;5.00;3.50;;;;;21.91;61.47;100596.16;5020081;28;45477;-93
2022/09/13 02:00:08;;;;;;;;;4.00;4.00;;;;;21.91;61.60;100594.34;5003999;28;45361;-93
2022/09/13 02:02:54;;;;;;;;;7.25;3.25;;;;;21.89;60.90;100588.31;5036930;28;45598;-93
2022/09/13 02:05:41;;;;;;;;;5.25;4.00;;;;;21.88;60.18;100586.66;5036689;28;45431;-93
2022/09/13 02:08:11;;;;;;;;;4.00;3.00;;;;;21.83;59.82;100581.69;5037605;28;45673;-92
2022/09/13 02:10:41;;;;;;;;;2.50;2.50;;;;;21.80;60.01;100575.81;5019929;28;45296;-92
2022/09/13 02:13:12;;;;;;;;;4.00;4.00;;;;;21.78;60.34;100578.56;5036828;28;45352;-93
2022/09/13 02:15:41;;;;;;;;;2.75;2.75;;;;;21.75;59.97;100576.19;5019808;28;46226;-93
2022/09/13 02:18:10;;;;;;;;;3.50;3.00;;;;;21.72;60.42;100580.88;5036629;28;45668;-93
2022/09/13 02:20:39;;;;;;;;;1.00;1.00;;;;;21.68;60.42;100577.63;5019888;28;45361;-92
2022/09/13 02:23:11;;;;;;;;;2.25;2.25;;;;;21.68;59.53;100576.78;5020188;28;45476;-92
2022/09/13 02:25:38;;;;;;;;;3.00;3.00;;;;;21.64;60.03;100569.06;5019349;28;46064;-93
2022/09/13 02:28:07;;;;;;;;;6.50;5.00;;;;;21.63;60.50;100579.78;5019849;28;45940;-92
2022/09/13 02:30:39;;;;;;;;;2.75;2.00;;;;;21.60;60.13;100564.13;5036492;28;45331;-93
2022/09/13 02:33:10;;;;;;;;;2.25;2.25;;;;;21.57;60.02;100569.66;5019898;28;45294;-93
2022/09/13 02:35:50;;;;;;;;;2.00;2.00;;;;;21.55;60.20;100566.31;5036318;28;48149;-93
2022/09/13 02:38:32;;;;;;;;;3.00;3.00;;;;;21.54;61.11;100561.94;5019701;28;45927;-93
2022/09/13 02:41:14;;;;;;;;;3.25;3.25;;;;;21.52;60.78;100558.59;5036139;28;45340;-92
2022/09/13 02:43:44;;;;;;;;;4.50;2.50;;;;;21.51;59.79;100556.88;5019739;28;45341;-92
2022/09/13 02:46:24;;;;;;;;;3.75;3.00;;;;;21.49;60.61;100556.16;5019578;28;46365;-94
2022/09/13 02:48:49;;;;;;;;;3.00;3.00;;;;;21.48;60.58;100557.97;5052857;28;45393;-93
2022/09/13 02:51:40;;;;;;;;;2.67;2.67;;;;;21.49;60.08;100556.16;5019809;28;45305;-93
2022/09/13 02:54:29;;;;;;;;;2.75;2.75;;;;;21.49;60.65;100562.31;5019069;28;45325;-93
2022/09/13 02:57:05;;;;;;;;;4.00;3.00;;;;;21.50;60.27;100557.88;5019471;28;46148;-93
2022/09/13 02:59:30;;;;;;;;;5.00;3.50;;;;;21.50;60.22;100547.28;5018875;28;45384;-93
2022/09/13 03:02:01;;;;;;;;;2.00;2.00;;;;;21.51;60.28;100546.28;5002523;28;60985;-93
2022/09/13 03:04:27;;;;;;;;;3.00;3.00;;;;;21.52;60.78;100550.63;5019731;28;45375;-93
2022/09/13 03:06:52;;;;;;;;;2.00;2.00;;;;;21.51;59.78;100543.66;5002766;28;48446;-93
2022/09/13 03:09:19;;;;;;;;;4.75;2.25;;;;;21.51;60.42;100549.81;5019091;28;45418;-94
2022/09/13 03:12:06;;;;;;;;;3.00;2.75;;;;;21.52;60.08;100553.28;5019673;28;45531;-94
2022/09/13 03:15:00;;;;;;;;;2.75;2.25;;;;;21.53;61.13;100544.41;5019465;28;45441;-93
2022/09/13 03:17:40;;;;;;;;;3.00;3.00;;;;;21.55;60.89;100542.47;5019138;28;47452;-93
2022/09/13 03:20:11;;;;;;;;;3.00;3.00;;;;;21.56;60.39;100539.72;5019406;28;45634;-94
2022/09/13 03:23:02;;;;;;;;;3.25;3.00;;;;;21.59;60.77;100538.59;5018939;28;45282;-94
2022/09/13 03:25:27;;;;;;;;;3.25;3.25;;;;;21.61;60.71;100548.09;5036702;28;45494;-93
2022/09/13 03:28:13;;;;;;;;;3.00;3.00;;;;;21.59;60.14;100550.03;5036525;28;46391;-93
2022/09/13 03:30:43;;;;;;;;;3.00;3.00;;;;;21.61;61.32;100555.22;5036668;28;45795;-94
2022/09/13 03:33:30;;;;;;;;;3.00;3.00;;;;;21.63;61.23;100556.78;5019152;28;45422;-93
2022/09/13 03:36:08;;;;;;;;;5.00;3.00;;;;;21.65;60.99;100568.09;5036785;28;45480;-93
2022/09/13 03:38:41;;;;;;;;;3.00;3.00;;;;;21.63;60.88;100561.22;5001881;28;46705;-93
2022/09/13 03:41:11;;;;;;;;;3.00;3.00;;;;;21.61;60.72;100560.50;5035441;28;45282;-93
2022/09/13 03:43:42;;;;;;;;;2.00;2.00;;;;;21.60;61.45;100564.97;5035947;28;45406;-93
2022/09/13 03:46:12;;;;;;;;;2.75;2.50;;;;;21.61;61.29;100565.81;5035782;28;45314;-94
2022/09/13 03:48:39;;;;;;;;;3.50;2.75;;;;;21.59;60.22;100563.28;5035309;28;47227;-92
2022/09/13 03:51:06;;;;;;;;;4.50;3.00;;;;;21.56;61.39;100568.84;5018881;28;45773;-93
2022/09/13 03:53:34;;;;;;;;;1.00;1.00;;;;;21.54;60.73;100570.72;5018372;28;45388;-92
2022/09/13 03:56:00;;;;;;;;;3.00;2.00;;;;;21.58;61.76;100563.41;5035111;28;45434;-93
2022/09/13 03:58:26;;;;;;;;;3.50;2.50;;;;;21.62;61.24;100562.22;5018783;28;46568;-93
2022/09/13 04:00:53;;;;;;;;;8.00;2.25;;;;;21.64;61.10;100555.00;5051900;28;45309;-94
2022/09/13 04:03:18;;;;;;;;;3.00;3.00;;;;;21.65;61.22;100551.38;5036354;28;45285;-93
2022/09/13 04:05:44;;;;;;;;;2.75;2.75;;;;;21.65;61.22;100556.66;5018899;28;45364;-94
2022/09/13 04:08:10;;;;;;;;;4.50;3.25;;;;;21.63;61.01;100553.28;5018218;28;45449;-93
2022/09/13 04:10:36;;;;;;;;;3.25;3.25;;;;;21.60;61.71;100556.16;5003723;28;50820;-93
2022/09/13 04:13:02;;;;;;;;;4.25;3.25;;;;;21.58;62.10;100552.81;5039015;28;45364;-94
2022/09/13 04:15:30;;;;;;;;;4.00;2.50;;;;;21.59;62.15;100557.16;5038691;28;45567;-93
2022/09/13 04:17:55;;;;;;;;;3.00;3.00;;;;;21.61;62.01;100545.47;5039239;28;45407;-94
2022/09/13 04:20:20;;;;;;;;;3.00;2.00;;;;;21.65;61.18;100546.91;5021783;28;45412;-93
2022/09/13 04:22:53;;;;;;;;;2.75;2.75;;;;;21.65;61.56;100552.19;5021815;28;45413;-94
2022/09/13 04:25:19;;;;;;;;;6.50;4.00;;;;;21.64;61.45;100557.63;5005199;28;45600;-94
2022/09/13 04:27:45;;;;;;;;;3.50;2.25;;;;;21.62;61.79;100570.16;5021860;28;47341;-93
2022/09/13 04:30:11;;;;;;;;;5.50;3.00;;;;;21.60;61.48;100572.06;5038870;28;45468;-94
2022/09/13 04:32:36;;;;;;;;;3.00;3.00;;;;;21.60;62.08;100574.72;5021754;28;45390;-94
2022/09/13 04:35:02;;;;;;;;;3.75;3.00;;;;;21.61;61.87;100574.59;5021436;28;45294;-93
2022/09/13 04:37:27;;;;;;;;;3.00;3.00;;;;;21.60;61.89;100567.63;5037951;28;48047;-93
2022/09/13 04:39:52;;;;;;;;;2.75;2.75;;;;;21.61;62.47;100563.16;5021098;28;66922;-93
2022/09/13 04:42:18;;;;;;;;;2.50;2.50;;;;;21.63;62.18;100556.78;5021534;28;45321;-93
2022/09/13 04:44:43;;;;;;;;;3.00;3.00;;;;;21.61;61.52;100558.69;5021569;28;45551;-93
2022/09/13 04:47:09;;;;;;;;;4.00;4.00;;;;;21.59;61.68;100563.28;5038958;28;46451;-94
2022/09/13 04:49:34;;;;;;;;;3.75;3.75;;;;;21.60;62.09;100558.81;5020623;28;55111;-94
2022/09/13 04:51:59;;;;;;;;;4.00;2.50;;;;;21.58;61.77;100568.69;5004826;28;45516;-93
2022/09/13 04:54:26;;;;;;;;;5.00;3.00;;;;;21.52;59.96;100577.13;5004783;28;45349;-94
2022/09/13 04:56:51;;;;;;;;;4.25;3.25;;;;;21.48;59.36;100580.97;5038604;28;46487;-93
2022/09/13 04:59:16;;;;;;;;;3.75;3.75;;;;;21.41;59.29;100594.66;5020551;28;61680;-92
2022/09/13 05:01:42;;;;;;;;;5.25;5.00;;;;;21.37;59.83;100587.91;5021435;28;45369;-93
2022/09/13 05:04:08;;;;;;;;;7.00;4.00;;;;;21.35;60.16;100591.63;5020954;28;45624;-93
2022/09/13 05:06:34;;;;;;;;;7.00;6.00;;;;;21.31;60.62;100590.19;5039157;28;47276;-94
2022/09/13 05:09:00;;;;;;;;;6.75;5.00;;;;;21.26;61.07;100579.94;5037732;28;47261;-93
2022/09/13 05:11:26;;;;;;;;;7.00;5.50;;;;;21.24;61.46;100577.41;5038013;28;45448;-93
2022/09/13 05:13:55;;;;;;;;;5.00;5.00;;;;;21.24;62.22;100566.81;5037773;28;45242;-92
2022/09/13 05:16:21;;;;;;;;;6.25;5.75;;;;;21.27;61.76;100563.09;5037597;28;47025;-93
2022/09/13 05:18:47;;;;;;;;;5.00;5.00;;;;;21.29;61.63;100571.78;5020538;28;45270;-93
2022/09/13 05:21:13;;;;;;;;;6.50;3.75;;;;;21.22;61.49;100573.19;5003875;28;45398;-92
2022/09/13 05:23:38;;;;;;;;;6.50;5.00;;;;;21.15;62.07;100579.91;5054479;28;45440;-92
2022/09/13 05:26:05;;;;;;;;;6.00;6.00;;;;;21.11;62.38;100586.41;5038615;28;45379;-94
2022/09/13 05:28:33;;;;;;;;;6.00;5.00;;;;;21.06;62.68;100584.94;5020468;28;45716;-93
2022/09/13 05:31:00;;;;;;;;;6.00;6.00;;;;;21.04;63.13;100593.94;5020700;28;45398;-94
2022/09/13 05:33:27;;;;;;;;;6.25;4.00;;;;;20.99;62.42;100581.06;5037985;28;45318;-88
2022/09/13 05:35:53;;;;;;;;;6.00;6.00;;;;;20.98;63.06;100574.09;5019623;28;45409;-87
2022/09/13 05:38:18;;;;;;;;;6.00;6.00;;;;;21.01;62.22;100573.88;5020236;28;45407;-90
2022/09/13 05:40:44;;;;;;;;;8.75;7.50;;;;;21.03;61.66;100584.34;5052721;28;57317;-88
2022/09/13 05:43:10;;;;;;;;;9.00;7.00;;;;;21.03;61.54;100586.97;5037078;28;45620;-87
2022/09/13 05:45:35;;;;;;;;;7.00;7.00;;;;;21.04;61.73;100586.00;5036829;28;46490;-88
2022/09/13 05:48:01;;;;;;;;;5.00;5.00;;;;;21.05;61.76;100587.72;5036570;28;50347;-86
2022/09/13 05:50:26;;;;;;;;;0.00;0.00;;;;;21.03;61.47;100577.22;5019366;28;45500;-85
2022/09/13 05:52:52;;;;;;;;;5.00;5.00;;;;;21.05;62.29;100577.97;5037011;28;45493;-86
2022/09/13 05:55:18;;;;;;;;;6.00;5.00;;;;;21.06;61.31;100573.50;5036931;28;45447;-88
2022/09/13 05:57:43;;;;;;;;;7.50;4.00;;;;;21.10;61.70;100579.41;5019170;28;45370;-88
2022/09/13 06:00:09;;;;;;;;;5.00;5.00;;;;;21.12;61.24;100572.19;5021186;28;45647;-87
2022/09/13 06:02:35;;;;;;;;;8.25;6.50;;;;;21.13;60.90;100572.09;5018639;28;45653;-86
2022/09/13 06:05:00;;;;;;;;;8.50;5.00;;;;;21.13;61.08;100571.25;5018861;28;46603;-86
2022/09/13 06:07:26;;;;;;;;;6.00;4.50;;;;;21.12;61.08;100567.75;5018836;28;45431;-84
2022/09/13 06:09:52;;;;;;;;;6.25;5.00;;;;;21.15;61.53;100562.22;5019051;28;45412;-85
2022/09/13 06:12:17;;;;;;;;;5.50;5.50;;;;;21.15;61.98;100554.28;5019140;28;45396;-85
2022/09/13 06:14:42;;;;;;;;;5.00;5.00;;;;;21.19;61.95;100554.88;5035529;28;74527;-86
2022/09/13 06:17:08;;;;;;;;;5.25;5.00;;;;;21.22;62.14;100554.66;5035671;28;58840;-86
2022/09/13 06:19:34;;;;;;;;;9.50;5.50;;;;;21.24;61.01;100540.34;5002168;28;45512;-85
2022/09/13 06:21:59;;;;;;;;;6.25;5.75;;;;;21.25;61.41;100538.56;5036547;28;45420;-86
2022/09/13 06:24:24;;;;;;;;;7.00;5.75;;;;;21.26;61.27;100540.22;5035765;28;67747;-86
2022/09/13 06:26:50;;;;;;;;;6.00;6.00;;;;;21.30;61.22;100540.84;5018337;28;45727;-85
2022/09/13 06:29:16;;;;;;;;;10.75;7.00;;;;;21.33;61.55;100533.50;5021028;28;45321;-86
2022/09/13 06:31:43;;;;;;;;;8.00;7.50;;;;;21.37;61.23;100539.41;4998190;28;45295;-86
2022/09/13 06:34:12;;;;;;;;;7.25;7.00;;;;;21.39;60.25;100543.59;5017445;28;45465;-86
2022/09/13 06:36:40;;;;;;;;;7.25;6.50;;;;;21.43;60.62;100533.63;5036144;28;45852;-85
2022/09/13 06:39:05;;;;;;;;;8.50;7.25;;;;;21.48;60.58;100528.03;5036314;28;45396;-86
2022/09/13 06:41:31;;;;;;;;;5.00;5.00;;;;;21.52;61.00;100521.50;5018372;28;45448;-85
2022/09/13 06:43:58;;;;;;;;;10.00;5.00;;;;;21.56;61.03;100517.66;5001437;28;46538;-85
2022/09/13 06:46:24;;;;;;;;;5.00;5.00;;;;;21.60;60.59;100514.66;5035828;28;45715;-86
2022/09/13 06:48:49;;;;;;;;;7.00;6.00;;;;;21.65;60.33;100504.53;5036254;28;45384;-85
2022/09/13 06:51:17;;;;;;;;;6.75;6.00;;;;;21.72;60.35;100499.59;5018283;28;45357;-85
2022/09/13 06:53:44;;;;;;;;;12.00;8.00;;;;;21.76;59.88;100492.25;5018305;28;45407;-85
2022/09/13 06:56:15;;;;;;;;;9.50;7.75;;;;;21.77;59.75;100489.47;5035692;28;45174;-85
2022/09/13 06:58:42;;;;;;;;;10.00;7.00;;;;;21.81;59.29;100482.97;5018334;28;45511;-85
2022/09/13 07:01:13;;;;;;;;;11.50;7.00;;;;;21.84;59.71;100472.13;5035647;28;45438;-85
2022/09/13 07:03:40;;;;;;;;;7.00;7.00;;;;;21.90;59.69;100469.91;5027851;28;46741;-86
2022/09/13 07:06:15;;;;;;;;;7.50;5.50;;;;;21.92;59.27;100460.06;5035755;28;45840;-85
2022/09/13 07:08:41;;;;;;;;;5.50;5.50;;;;;21.92;59.08;100460.91;5035911;28;45405;-85
2022/09/13 07:11:08;;;;;;;;;5.50;5.25;;;;;21.95;59.01;100455.38;5034609;28;45506;-85
2022/09/13 07:13:34;;;;;;;;;8.00;5.00;;;;;21.97;58.86;100461.38;5002113;28;46722;-86
2022/09/13 07:16:10;;;;;;;;;6.50;4.25;;;;;21.99;58.30;100455.94;5018274;28;45557;-83
2022/09/13 07:18:35;;;;;;;;;4.75;4.50;;;;;21.99;58.02;100459.44;5037692;28;45283;-85
2022/09/13 07:21:06;;;;;;;;;4.50;4.50;;;;;21.98;58.08;100452.44;5036679;28;45360;-85
2022/09/13 07:23:33;;;;;;;;;7.50;6.50;;;;;22.02;58.16;100463.63;5017116;28;46525;-84
2022/09/13 07:26:03;;;;;;;;;5.00;4.75;;;;;22.09;57.73;100456.03;5017503;28;45337;-85
2022/09/13 07:28:30;;;;;;;;;5.00;5.00;;;;;22.15;58.16;100459.00;5033321;28;45499;-82
2022/09/13 07:31:03;;;;;;;;;3.25;3.25;;;;;22.21;57.83;100460.31;5037423;28;45564;-84
2022/09/13 07:33:28;;;;;;;;;5.00;4.25;;;;;22.26;57.61;100458.16;5034919;28;47640;-84
2022/09/13 07:35:55;;;;;;;;;4.75;4.00;;;;;22.31;57.49;100457.81;5013039;28;45340;-83
2022/09/13 07:38:20;;;;;;;;;7.50;5.00;;;;;22.38;57.02;100465.13;4997870;28;45502;-86
2022/09/13 07:40:57;;;;;;;;;5.00;5.00;;;;;22.49;57.07;100466.88;5007131;28;58479;-85
2022/09/13 07:43:24;;;;;;;;;5.75;5.75;;;;;22.56;57.12;100469.84;5035357;28;46507;-86
2022/09/13 07:46:01;;;;;;;;;5.00;5.00;;;;;22.58;56.66;100470.56;5015691;28;45848;-89
2022/09/13 07:48:27;;;;;;;;;4.75;3.75;;;;;22.63;56.75;100478.13;5057276;28;45215;-92
2022/09/13 07:51:04;;;;;;;;;5.75;5.00;;;;;22.70;56.89;100476.66;5058503;28;45472;-88
2022/09/13 07:53:31;;;;;;;;;4.00;4.00;;;;;22.79;56.50;100470.56;5059690;28;46712;-87
2022/09/13 07:56:11;;;;;;;;;5.50;4.00;;;;;22.88;56.32;100468.94;5057461;28;45814;-88
2022/09/13 07:58:38;;;;;;;;;5.00;3.50;;;;;22.91;56.31;100461.56;5059271;28;45343;-87
2022/09/13 08:01:20;;;;;;;;;4.25;4.00;;;;;22.95;55.95;100460.31;5057377;28;46720;-84
2022/09/13 08:04:05;;;;;;;;;4.00;4.00;;;;;22.97;55.55;100463.69;5046736;28;45360;-84
2022/09/13 08:06:31;;;;;;;;;4.25;3.50;;;;;23.01;55.89;100464.25;5038350;28;45368;-86
2022/09/13 08:08:57;;;;;;;;;5.25;4.00;;;;;23.07;55.36;100463.78;5038476;28;45496;-86
2022/09/13 08:11:26;;;;;;;;;4.00;4.00;;;;;23.10;55.30;100465.31;5038576;28;45294;-81
2022/09/13 08:13:52;;;;;;;;;4.50;4.50;;;;;23.12;55.98;100466.88;5030589;28;46639;-85
2022/09/13 08:16:19;;;;;;;;;9.00;5.00;;;;;23.17;55.36;100467.31;5038120;28;45445;-83
2022/09/13 08:18:50;;;;;;;;;5.75;4.50;;;;;23.20;55.08;100463.56;5038486;28;45559;-84
2022/09/13 08:21:15;;;;;;;;;3.50;3.50;;;;;23.24;55.16;100462.31;5038103;28;45348;-84
2022/09/13 08:23:41;;;;;;;;;3.25;3.25;;;;;23.29;55.21;100449.50;5042428;28;47057;-84
2022/09/13 08:26:07;;;;;;;;;5.50;4.75;;;;;23.35;55.00;100456.09;5037978;28;45473;-84
2022/09/13 08:28:34;;;;;;;;;3.00;2.75;;;;;23.39;55.48;100453.00;5048179;28;45312;-84
2022/09/13 08:31:10;;;;;;;;;4.75;3.75;;;;;23.46;54.93;100450.66;5038165;28;45388;-84
2022/09/13 08:33:36;;;;;;;;;9.75;5.00;;;;;23.50;55.06;100446.75;5045402;28;46737;-84
2022/09/13 08:36:02;;;;;;;;;6.00;5.75;;;;;23.52;55.07;100449.28;5039356;28;55887;-84
2022/09/13 08:38:28;;;;;;;;;7.75;6.50;;;;;23.54;55.15;100449.97;5038140;28;45592;-84
2022/09/13 08:40:59;;;;;;;;;6.25;5.00;;;;;23.58;54.76;100454.03;5039545;28;45431;-90
2022/09/13 08:43:46;;;;;;;;;5.00;5.00;;;;;23.62;55.28;100467.91;5039984;28;47343;-86
2022/09/13 08:46:26;;;;;;;;;8.50;6.00;;;;;23.65;54.92;100471.13;5056616;28;45369;-87
2022/09/13 08:48:54;;;;;;;;;9.75;8.00;;;;;23.75;54.65;100468.50;5036695;28;45321;-87
2022/09/13 08:51:26;;;;;;;;;7.50;6.75;;;;;23.81;54.29;100475.09;5037369;28;45314;-95
2022/09/13 08:53:51;;;;;;;;;9.00;6.75;;;;;23.85;54.31;100485.34;5037687;28;47403;-91
2022/09/13 08:56:17;;;;;;;;;7.00;7.00;;;;;23.92;53.82;100488.28;5040293;28;45459;-85
2022/09/13 08:59:07;;;;;;;;;7.00;5.67;;;;;24.04;53.91;100491.69;5059747;28;45355;-94
2022/09/13 09:01:41;;;;;;;;;4.00;4.00;;;;;24.10;53.34;100494.59;5055098;28;45397;-95
2022/09/13 09:04:26;;;;;;;;;6.00;5.75;;;;;24.15;53.33;100496.88;5040190;28;45339;-95
2022/09/13 09:07:19;;;;;;;;;5.00;4.25;;;;;24.23;52.89;100502.31;5038544;28;45226;-94
2022/09/13 09:09:54;;;;;;;;;4.75;4.50;;;;;24.30;52.74;100506.09;5037323;28;45300;-95
2022/09/13 09:12:27;;;;;;;;;4.00;4.00;;;;;24.34;52.46;100504.00;5024323;28;45385;-95
2022/09/13 09:15:09;;;;;;;;;6.00;6.00;;;;;24.38;52.46;100505.41;5041396;28;45488;-87
2022/09/13 09:17:43;;;;;;;;;5.75;4.00;;;;;24.39;52.54;100509.75;5039777;28;45423;-83
2022/09/13 09:20:32;;;;;;;;;7.50;4.00;;;;;24.40;52.10;100514.09;5039498;28;45380;-84
2022/09/13 09:23:02;;;;;;;;;4.00;3.00;;;;;24.44;52.72;100530.59;5029929;28;45336;-85
2022/09/13 09:25:27;;;;;;;;;3.25;2.00;;;;;24.48;51.90;100522.22;5018373;28;46191;-85
2022/09/13 09:27:53;;;;;;;;;4.25;4.25;;;;;24.58;52.75;100522.25;5049324;28;45191;-85
2022/09/13 09:30:19;;;;;;;;;6.50;3.75;;;;;24.68;53.70;100509.78;5019895;28;62693;-86
2022/09/13 09:32:51;;;;;;;;;3.50;3.00;;;;;24.73;53.99;100501.38;5018681;28;45399;-86
2022/09/13 09:36:04;;;;;;;;;4.25;4.00;;;;;24.80;55.50;100499.81;5036639;28;46643;-87
2022/09/13 09:38:35;;;;;;;;;5.00;4.00;;;;;24.93;54.75;100515.50;5023962;28;45732;-86
2022/09/13 09:41:15;;;;;;;;;6.00;5.00;;;;;24.97;54.79;100513.38;5043600;28;45664;-85
2022/09/13 09:43:45;;;;;;;;;3.25;3.25;;;;;24.99;55.25;100527.38;5033209;28;45429;-85
2022/09/13 09:46:14;;;;;;;;;4.25;4.25;;;;;25.01;54.65;100522.75;5018660;28;46097;-85
2022/09/13 09:48:53;;;;;;;;;4.00;4.00;;;;;25.02;54.49;100538.59;5033080;28;45347;-84
2022/09/13 09:51:21;;;;;;;;;5.50;3.50;;;;;25.04;54.40;100525.97;5035480;28;45348;-85
2022/09/13 09:53:49;;;;;;;;;7.25;4.00;;;;;25.08;54.10;100530.03;5018482;28;45612;-86
2022/09/13 09:56:23;;;;;;;;;6.25;5.00;;;;;25.17;55.52;100525.66;5017907;28;45406;-88
2022/09/13 09:58:50;;;;;;;;;5.25;4.75;;;;;25.25;53.93;100512.47;5027436;28;45731;-85
2022/09/13 10:01:28;;;;;;;;;6.00;3.00;;;;;25.27;53.51;100518.50;5036524;28;45288;-89
2022/09/13 10:04:02;;;;;;;;;3.75;3.00;;;;;25.29;52.47;100527.19;5036344;28;45402;-86
2022/09/13 10:06:29;;;;;;;;;4.00;4.00;;;;;25.36;52.07;100526.63;5035327;28;46216;-86
2022/09/13 10:09:03;;;;;;;;;4.00;4.00;;;;;25.45;52.29;100531.91;5017373;28;45690;-86
2022/09/13 10:11:41;;;;;;;;;4.50;3.00;;;;;25.56;51.86;100532.72;5034361;28;45370;-86
2022/09/13 10:14:29;;;;;;;;;3.75;2.00;;;;;25.68;51.79;100527.03;5031068;28;45632;-86
2022/09/13 10:17:04;;;;;;;;;3.00;3.00;;;;;25.82;51.52;100536.38;5052066;28;47225;-86
2022/09/13 10:19:30;;;;;;;;;5.75;4.00;;;;;25.95;50.42;100535.22;5055541;28;45822;-89
2022/09/13 10:22:01;;;;;;;;;2.00;2.00;;;;;26.12;51.14;100537.06;5036052;28;45556;-87
2022/09/13 10:24:28;;;;;;;;;4.00;3.00;;;;;26.21;50.49;100538.00;5018351;28;45488;-89
2022/09/13 10:26:54;;;;;;;;;4.00;4.00;;;;;26.29;50.18;100537.25;5018266;28;47411;-89
2022/09/13 10:29:20;;;;;;;;;4.00;4.00;;;;;26.37;49.71;100531.97;5035851;28;45522;-89
2022/09/13 10:31:48;;;;;;;;;4.50;4.00;;;;;26.39;49.59;100538.00;5041206;28;45430;-88
2022/09/13 10:34:34;;;;;;;;;6.00;4.25;;;;;26.38;49.08;100537.16;5028912;28;45592;-86
2022/09/13 10:37:20;;;;;;;;;4.25;4.25;;;;;26.39;49.80;100538.88;5034960;28;48433;-84
2022/09/13 10:39:53;;;;;;;;;7.75;5.00;;;;;26.39;49.16;100536.19;5011816;28;45488;-86
2022/09/13 10:42:22;;;;;;;;;5.50;4.00;;;;;26.43;49.25;100529.56;5020683;28;45593;-86
2022/09/13 10:44:54;;;;;;;;;7.25;5.75;;;;;26.50;49.22;100523.59;5007934;28;45417;-86
2022/09/13 10:47:24;;;;;;;;;7.75;7.00;;;;;26.49;49.46;100517.44;5036500;28;46513;-88
2022/09/13 10:49:51;;;;;;;;;7.00;6.00;;;;;26.48;49.65;100526.41;5021267;28;45820;-88
2022/09/13 10:52:34;;;;;;;;;6.50;6.00;;;;;26.50;49.63;100526.25;5055781;28;45327;-88
2022/09/13 10:55:35;;;;;;;;;8.00;6.00;;;;;26.48;49.50;100526.41;5035566;28;45531;-86
2022/09/13 10:58:01;;;;;;;;;5.75;5.00;;;;;26.45;49.16;100519.56;5033731;28;45860;-86
2022/09/13 11:00:35;;;;;;;;;6.67;4.67;;;;;26.53;49.21;100518.78;5054124;28;45380;-87
2022/09/13 11:03:36;;;;;;;;;5.00;5.00;;;;;26.76;48.90;100513.00;5051921;28;45447;-87
2022/09/13 11:06:16;;;;;;;;;7.50;5.50;;;;;26.95;48.88;100515.50;4993672;28;45488;-86
2022/09/13 11:08:49;;;;;;;;;4.00;4.00;;;;;27.12;47.40;100518.28;4993285;28;47176;-87
2022/09/13 11:11:17;;;;;;;;;5.75;4.00;;;;;27.29;48.58;100508.53;4991824;28;45326;-87
2022/09/13 11:13:51;;;;;;;;;5.25;5.25;;;;;27.53;47.95;100511.31;4997040;28;45367;-86
2022/09/13 11:16:41;;;;;;;;;6.00;6.00;;;;;27.64;46.53;100520.03;5008411;28;45419;-86
2022/09/13 11:19:09;;;;;;;;;4.00;4.00;;;;;27.65;46.87;100522.56;5012642;28;47255;-86
2022/09/13 11:21:46;;;;;;;;;4.00;4.00;;;;;27.68;46.26;100516.06;4999264;28;45723;-86
2022/09/13 11:24:30;;;;;;;;;4.00;4.00;;;;;27.64;46.36;100520.03;4977111;28;45416;-86
2022/09/13 11:27:10;;;;;;;;;4.50;4.00;;;;;27.46;46.60;100520.97;4988675;28;45354;-87
2022/09/13 11:30:00;;;;;;;;;6.00;4.25;;;;;27.21;46.30;100515.47;4981074;28;46506;-86
2022/09/13 11:32:29;;;;;;;;;9.00;5.25;;;;;27.06;46.57;100510.88;5001310;28;45706;-86
2022/09/13 11:35:33;;;;;;;;;5.25;4.50;;;;;26.91;47.00;100507.94;4976818;28;45388;-86
2022/09/13 11:38:20;;;;;;;;;4.00;4.00;;;;;26.80;46.98;100498.34;4915517;28;45470;-87
2022/09/13 11:40:58;;;;;;;;;4.50;4.50;;;;;26.70;46.98;100495.78;4930174;28;45659;-86
2022/09/13 11:43:46;;;;;;;;;4.25;3.50;;;;;26.67;47.40;100488.09;4918724;28;45819;-87